Time;durP1;ratioP1;P1;durP2;ratioP2;P2;SDS_P1;SDS_P2;PMS_P1;PMS_P2;Temp;Humidity;BMP_temperature;BMP_pressure;BME280_temperature;BME280_humidity;BME280_pressure;Samples;Min_cycle;Max_cycle;Signal;HPM_P1;HPM_P2
2020/12/28 00:01:34;;;;;;;10.50;7.67;;;-2.20;99.90;-3.70;94807.00;;;;6150080;23;20425;-68
2020/12/28 00:04:02;;;;;;;11.33;8.17;;;-1.20;99.90;-3.60;94801.00;;;;6150660;23;20410;-68
2020/12/28 00:06:30;;;;;;;9.07;7.40;;;-2.20;99.90;-3.70;94797.00;;;;6149977;23;20400;-69
2020/12/28 00:08:57;;;;;;;9.17;7.60;;;-2.20;99.90;-3.70;94792.00;;;;6149669;23;20767;-68
2020/12/28 00:11:25;;;;;;;12.03;7.67;;;-2.20;99.90;-3.70;94775.00;;;;6150395;23;20618;-68
2020/12/28 00:13:52;;;;;;;11.33;7.03;;;-2.20;99.90;-3.70;94773.00;;;;6149864;23;20782;-68
2020/12/28 00:16:20;;;;;;;11.50;8.13;;;-2.30;99.90;-3.70;94770.00;;;;6150914;23;20417;-67
2020/12/28 00:18:48;;;;;;;10.17;7.87;;;-2.80;99.90;-3.70;94755.00;;;;6149088;23;20425;-68
2020/12/28 00:21:15;;;;;;;11.53;8.67;;;-2.20;99.90;-3.70;94749.00;;;;6150275;23;20432;-68
2020/12/28 00:23:44;;;;;;;11.03;7.77;;;-2.20;99.90;-3.70;94751.00;;;;6149803;23;20413;-68
2020/12/28 00:26:11;;;;;;;10.27;7.80;;;-2.20;99.90;-3.70;94742.00;;;;6150795;23;20405;-68
2020/12/28 00:28:38;;;;;;;8.47;6.60;;;-2.30;99.90;-3.70;94747.00;;;;6149809;23;20390;-67
2020/12/28 00:31:09;;;;;;;10.70;8.13;;;-2.20;99.90;-3.70;94746.00;;;;6149722;23;20425;-67
2020/12/28 00:33:36;;;;;;;10.23;9.17;;;-2.30;99.90;-3.70;94741.00;;;;6150428;23;20441;-68
2020/12/28 00:36:04;;;;;;;10.07;7.67;;;-2.30;99.90;-3.60;94742.00;;;;6150461;23;20725;-67
2020/12/28 00:38:31;;;;;;;12.87;7.70;;;-2.20;99.90;-3.60;94743.00;;;;6148367;23;20394;-68
2020/12/28 00:40:59;;;;;;;9.07;7.20;;;-2.20;99.90;-3.70;94736.00;;;;6149812;23;20426;-68
2020/12/28 00:43:27;;;;;;;11.10;8.33;;;-2.20;99.90;-3.60;94730.00;;;;6150679;23;20425;-68
2020/12/28 00:45:54;;;;;;;12.17;8.60;;;-2.20;99.90;-3.60;94730.00;;;;6149862;23;20401;-67
2020/12/28 00:48:22;;;;;;;11.20;9.33;;;-2.20;99.90;-3.60;94725.00;;;;6149410;23;20883;-67
2020/12/28 00:50:49;;;;;;;10.63;7.23;;;-2.10;99.90;-3.60;94716.00;;;;6150164;23;20930;-67
2020/12/28 00:53:17;;;;;;;9.47;8.00;;;-2.20;99.90;-3.60;94723.00;;;;6149583;23;20429;-68
2020/12/28 00:55:44;;;;;;;11.33;8.67;;;-2.20;99.90;-3.60;94721.00;;;;6150109;23;20780;-67
2020/12/28 00:58:12;;;;;;;10.67;7.43;;;-2.10;99.90;-3.60;94718.00;;;;6149300;23;20409;-66
2020/12/28 01:00:40;;;;;;;11.63;8.10;;;-2.20;99.90;-3.60;94709.00;;;;6150115;23;20394;-69
2020/12/28 01:03:08;;;;;;;9.50;7.83;;;-2.20;99.90;-3.60;94708.00;;;;6149726;23;20751;-67
2020/12/28 01:05:35;;;;;;;12.70;8.47;;;-2.10;99.90;-3.50;94701.00;;;;6150121;23;20421;-68
2020/12/28 01:08:02;;;;;;;12.23;7.53;;;-2.10;99.90;-3.50;94697.00;;;;6149028;23;20794;-68
2020/12/28 01:10:30;;;;;;;12.27;8.47;;;-2.20;99.90;-3.60;94693.00;;;;6149768;23;20417;-67
2020/12/28 01:12:57;;;;;;;10.27;7.73;;;-2.00;99.90;-3.70;94684.00;;;;6149644;23;20452;-68
2020/12/28 01:15:25;;;;;;;10.23;8.00;;;-2.10;99.90;-3.70;94681.00;;;;6149547;23;20903;-68
2020/12/28 01:17:55;;;;;;;8.30;7.00;;;-2.20;99.90;-3.60;94681.00;;;;6149616;23;20417;-68
2020/12/28 01:20:22;;;;;;;13.13;9.50;;;-2.20;99.90;-3.60;94666.00;;;;6149842;23;20397;-68
2020/12/28 01:22:49;;;;;;;11.87;8.93;;;-2.20;99.90;-3.60;94668.00;;;;6150047;23;20409;-68
2020/12/28 01:25:17;;;;;;;10.23;7.33;;;-2.20;99.90;-3.60;94670.00;;;;6149889;23;20405;-68
2020/12/28 01:27:44;;;;;;;9.07;7.07;;;-2.20;99.90;-3.60;94667.00;;;;6149404;23;20877;-68
2020/12/28 01:30:12;;;;;;;11.37;8.03;;;-2.20;99.90;-3.60;94665.00;;;;6150019;23;20406;-68
2020/12/28 01:32:40;;;;;;;10.40;7.43;;;-2.20;99.90;-3.60;94644.00;;;;6150331;23;20426;-67
2020/12/28 01:35:07;;;;;;;9.87;7.57;;;-2.20;99.90;-3.70;94644.00;;;;6150168;23;20405;-67
2020/12/28 01:37:35;;;;;;;11.13;7.87;;;-2.20;99.90;-3.70;94644.00;;;;6149407;23;20394;-67
2020/12/28 01:40:02;;;;;;;11.77;8.30;;;-2.20;99.90;-3.60;94628.00;;;;6151665;23;20425;-68
2020/12/28 01:42:30;;;;;;;10.67;8.13;;;-2.20;99.90;-3.70;94634.00;;;;6152100;23;20436;-67
2020/12/28 01:44:57;;;;;;;11.37;9.37;;;-2.20;99.90;-3.70;94622.00;;;;6151945;23;20416;-67
2020/12/28 01:47:26;;;;;;;10.80;9.10;;;-2.20;99.90;-3.60;94631.00;;;;6150823;23;20893;-69
2020/12/28 01:49:55;;;;;;;10.80;8.30;;;-2.20;99.90;-3.50;94623.00;;;;6152329;23;20478;-68
2020/12/28 01:52:23;;;;;;;10.97;8.63;;;-2.20;99.90;-3.60;94627.00;;;;6151316;23;20936;-68
2020/12/28 01:54:50;;;;;;;10.77;7.67;;;-2.20;99.90;-3.50;94627.00;;;;6151623;23;20476;-67
2020/12/28 01:57:18;;;;;;;12.47;10.60;;;-2.20;99.90;-3.50;94634.00;;;;6151515;23;20750;-67
2020/12/28 01:59:46;;;;;;;13.30;8.93;;;-2.20;99.90;-3.60;94606.00;;;;6151611;23;20409;-68
2020/12/28 02:02:16;;;;;;;10.73;9.00;;;-2.10;99.90;-3.60;94605.00;;;;6151692;23;20926;-68
2020/12/28 02:04:43;;;;;;;12.97;9.67;;;-2.20;99.90;-3.60;94599.00;;;;6151509;23;20409;-67
2020/12/28 02:07:13;;;;;;;11.77;8.97;;;-2.10;99.90;-3.60;94603.00;;;;6151391;23;20409;-70
2020/12/28 02:09:46;;;;;;;11.80;8.13;;;-2.10;99.90;-3.60;94599.00;;;;6151613;23;20934;-68
2020/12/28 02:12:14;;;;;;;13.13;9.67;;;-2.10;99.90;-3.70;94599.00;;;;6151689;23;20425;-68
2020/12/28 02:14:41;;;;;;;13.30;9.33;;;-2.10;99.90;-3.70;94590.00;;;;6151876;23;20429;-68
2020/12/28 02:17:09;;;;;;;10.87;9.37;;;-2.20;99.90;-3.60;94574.00;;;;6150891;23;20410;-68
2020/12/28 02:19:36;;;;;;;13.50;8.83;;;-2.20;99.90;-3.70;94575.00;;;;6152053;23;20412;-68
2020/12/28 02:22:04;;;;;;;12.03;9.67;;;-2.20;99.90;-3.70;94580.00;;;;6151249;23;20903;-67
2020/12/28 02:24:32;;;;;;;12.43;9.17;;;-2.20;99.90;-3.70;94565.00;;;;6151681;23;20421;-67
2020/12/28 02:26:59;;;;;;;12.60;9.47;;;-2.20;99.90;-3.70;94560.00;;;;6150238;23;20409;-68
2020/12/28 02:29:27;;;;;;;12.97;9.70;;;-2.30;99.90;-3.70;94560.00;;;;6151878;23;20851;-68
2020/12/28 02:31:54;;;;;;;9.10;7.93;;;-2.20;99.90;-3.60;94555.00;;;;6151578;23;20922;-68
2020/12/28 02:34:21;;;;;;;7.77;6.97;;;-2.30;99.90;-3.70;94551.00;;;;6151501;23;20449;-68
2020/12/28 02:36:49;;;;;;;12.27;8.23;;;-2.20;99.90;-3.70;94541.00;;;;6150931;23;20406;-69
2020/12/28 02:39:17;;;;;;;13.53;9.03;;;-2.30;99.90;-3.70;94538.00;;;;6151305;23;20416;-68
2020/12/28 02:41:45;;;;;;;10.30;8.40;;;-2.30;99.90;-3.70;94528.00;;;;6150974;23;20430;-68
2020/12/28 02:44:12;;;;;;;10.43;7.57;;;-2.30;99.90;-3.70;94512.00;;;;6151675;23;20416;-68
2020/12/28 02:46:39;;;;;;;10.57;8.40;;;-2.30;99.90;-3.60;94519.00;;;;6151882;23;20406;-67
2020/12/28 02:49:07;;;;;;;8.53;6.43;;;-2.20;99.90;-3.60;94504.00;;;;6151107;23;20394;-68
2020/12/28 02:51:34;;;;;;;9.87;7.77;;;-2.20;99.90;-3.60;94511.00;;;;6150429;23;20425;-68
2020/12/28 02:54:02;;;;;;;10.73;8.17;;;-2.30;99.90;-3.60;94501.00;;;;6151434;23;20938;-67
2020/12/28 02:56:30;;;;;;;12.90;9.23;;;-2.20;99.90;-3.50;94499.00;;;;6151332;23;20409;-67
2020/12/28 02:58:58;;;;;;;10.37;8.20;;;-2.20;99.90;-3.60;94481.00;;;;6151120;23;20410;-68
2020/12/28 03:01:25;;;;;;;10.00;7.73;;;-2.20;99.90;-3.60;94482.00;;;;6151087;23;20434;-67
2020/12/28 03:03:53;;;;;;;12.47;7.37;;;-2.20;99.90;-3.50;94486.00;;;;6151667;23;20444;-67
2020/12/28 03:06:20;;;;;;;17.90;13.20;;;-2.20;99.90;-3.50;94475.00;;;;6151448;23;20409;-68
2020/12/28 03:08:48;;;;;;;14.57;13.07;;;-2.20;99.90;-3.60;94471.00;;;;6151003;23;20422;-67
2020/12/28 03:11:15;;;;;;;18.40;12.40;;;-2.20;99.90;-3.70;94474.00;;;;6151925;23;20429;-68
2020/12/28 03:13:43;;;;;;;15.23;11.30;;;-2.20;99.90;-3.70;94469.00;;;;6150831;23;20429;-68
2020/12/28 03:16:11;;;;;;;11.37;9.00;;;-2.10;99.90;-3.70;94460.00;;;;6151839;23;20390;-68
2020/12/28 03:18:38;;;;;;;10.37;8.20;;;-2.20;99.90;-3.70;94457.00;;;;6151391;23;20410;-68
2020/12/28 03:21:05;;;;;;;13.67;9.40;;;-2.20;99.90;-3.60;94455.00;;;;6151537;23;20434;-68
2020/12/28 03:23:33;;;;;;;13.03;10.23;;;-2.20;99.90;-3.60;94458.00;;;;6152087;23;20413;-67
2020/12/28 03:26:00;;;;;;;17.60;11.80;;;-2.20;99.90;-3.60;94449.00;;;;6151969;23;20394;-67
2020/12/28 03:28:28;;;;;;;15.90;10.80;;;-2.20;99.90;-3.60;94458.00;;;;6150868;23;20899;-68
2020/12/28 03:30:56;;;;;;;11.67;9.97;;;-2.20;99.90;-3.60;94459.00;;;;6151237;23;21004;-68
2020/12/28 03:33:24;;;;;;;19.00;11.97;;;-2.20;99.90;-3.70;94465.00;;;;6151253;23;20430;-67
2020/12/28 03:35:51;;;;;;;16.67;12.47;;;-2.20;99.90;-3.70;94460.00;;;;6150992;23;20420;-68
2020/12/28 03:38:18;;;;;;;18.87;12.60;;;-2.20;99.90;-3.80;94460.00;;;;6150757;23;20410;-68
2020/12/28 03:40:46;;;;;;;12.30;10.57;;;-2.30;99.90;-3.70;94448.00;;;;6151047;23;20922;-68
2020/12/28 03:43:13;;;;;;;18.03;12.17;;;-2.30;99.90;-3.60;94456.00;;;;6151133;23;20416;-69
2020/12/28 03:45:41;;;;;;;18.50;13.20;;;-2.30;99.90;-3.60;94455.00;;;;6151578;23;20405;-67
2020/12/28 03:48:09;;;;;;;18.80;14.30;;;-2.30;99.90;-3.70;94454.00;;;;6150477;23;20402;-67
2020/12/28 03:50:36;;;;;;;20.20;14.17;;;-2.20;99.90;-3.60;94448.00;;;;6151026;23;20418;-68
2020/12/28 03:53:04;;;;;;;18.53;12.50;;;-2.20;99.90;-3.60;94436.00;;;;6150661;23;20390;-67
2020/12/28 03:55:31;;;;;;;19.87;13.30;;;-2.20;99.90;-3.70;94441.00;;;;6151118;23;20413;-67
2020/12/28 03:57:59;;;;;;;19.33;13.77;;;-2.20;99.90;-3.60;94421.00;;;;6149901;23;20390;-67
2020/12/28 04:00:27;;;;;;;22.33;14.40;;;-2.20;99.90;-3.50;94427.00;;;;6150694;23;20410;-67
2020/12/28 04:02:54;;;;;;;21.07;13.50;;;-2.20;99.90;-3.60;94423.00;;;;6148255;23;20409;-67
2020/12/28 04:05:22;;;;;;;21.70;14.07;;;-2.20;99.90;-3.60;94402.00;;;;6151191;23;20390;-68
2020/12/28 04:07:50;;;;;;;15.93;12.83;;;-2.00;99.90;-3.60;94392.00;;;;6150154;23;20413;-67
2020/12/28 04:10:17;;;;;;;19.60;14.53;;;-2.20;99.90;-3.60;94398.00;;;;6150483;23;20417;-68
2020/12/28 04:12:45;;;;;;;23.83;16.43;;;-2.10;99.90;-3.60;94424.00;;;;6150646;23;20425;-67
2020/12/28 04:15:12;;;;;;;18.93;13.83;;;-2.20;99.90;-3.60;94434.00;;;;6150475;23;20456;-66
2020/12/28 04:17:39;;;;;;;19.73;13.40;;;-2.20;99.90;-3.50;94439.00;;;;6150324;23;20397;-68
2020/12/28 04:20:07;;;;;;;19.33;12.73;;;-2.20;99.90;-3.60;94441.00;;;;6151200;23;20413;-68
2020/12/28 04:22:35;;;;;;;16.07;12.27;;;-2.20;99.90;-3.70;94444.00;;;;6149987;23;20432;-69
2020/12/28 04:25:03;;;;;;;13.10;10.47;;;-2.20;99.90;-3.70;94442.00;;;;6151170;23;20405;-68
2020/12/28 04:27:30;;;;;;;16.50;12.67;;;-2.20;99.90;-3.70;94438.00;;;;6149981;23;20417;-67
2020/12/28 04:29:57;;;;;;;17.43;12.47;;;-2.20;99.90;-3.60;94434.00;;;;6150912;23;20464;-68
2020/12/28 04:32:25;;;;;;;20.13;12.47;;;-2.20;99.90;-3.70;94435.00;;;;6150031;23;20429;-67
2020/12/28 04:34:52;;;;;;;14.10;10.53;;;-2.20;99.90;-3.80;94436.00;;;;6150462;23;20441;-68
2020/12/28 04:37:20;;;;;;;23.33;14.57;;;-2.30;99.90;-3.70;94442.00;;;;6149524;23;20414;-68
2020/12/28 04:39:48;;;;;;;16.23;12.77;;;-2.30;99.90;-3.70;94456.00;;;;6150407;23;20406;-68
2020/12/28 04:42:24;;;;;;;20.37;15.50;;;-2.30;99.90;-3.70;94441.00;;;;6150341;23;20433;-68
2020/12/28 04:44:51;;;;;;;17.87;13.60;;;-2.30;99.90;-3.70;94444.00;;;;6150686;23;20394;-68
2020/12/28 04:47:19;;;;;;;19.93;12.40;;;-2.30;99.90;-3.60;94445.00;;;;6149236;23;20416;-68
2020/12/28 04:49:47;;;;;;;19.33;14.47;;;-2.30;99.90;-3.60;94450.00;;;;6150343;23;20416;-68
2020/12/28 04:52:15;;;;;;;19.00;12.63;;;-2.20;99.90;-3.60;94452.00;;;;6150336;23;20429;-68
2020/12/28 04:54:47;;;;;;;20.43;14.13;;;-2.20;99.90;-3.60;94454.00;;;;6150589;23;20449;-67
2020/12/28 04:57:15;;;;;;;21.13;14.70;;;-2.20;99.90;-3.70;94457.00;;;;6150150;23;20397;-71
2020/12/28 04:59:43;;;;;;;24.83;14.73;;;-2.20;99.90;-3.80;94465.00;;;;6150516;23;20397;-68
2020/12/28 05:02:10;;;;;;;24.53;16.00;;;-2.20;99.90;-3.70;94455.00;;;;6149670;23;20923;-68
2020/12/28 05:04:38;;;;;;;19.87;14.30;;;-2.30;99.90;-3.70;94452.00;;;;6150941;23;20443;-69
2020/12/28 05:07:07;;;;;;;23.47;16.37;;;-2.20;99.90;-3.70;94448.00;;;;6149387;23;20412;-69
2020/12/28 05:09:35;;;;;;;24.53;15.00;;;-2.20;99.90;-3.70;94439.00;;;;6150355;23;20421;-69
2020/12/28 05:12:05;;;;;;;25.97;16.20;;;-2.20;99.90;-3.70;94427.00;;;;6149315;23;20799;-69
2020/12/28 05:14:33;;;;;;;29.43;17.43;;;-2.20;99.90;-3.70;94422.00;;;;6148592;23;20449;-69
2020/12/28 05:17:03;;;;;;;26.90;17.17;;;-2.20;99.90;-3.70;94426.00;;;;6150143;23;20417;-69
2020/12/28 05:19:30;;;;;;;24.40;16.27;;;-2.20;99.90;-3.70;94420.00;;;;6153018;23;20400;-69
2020/12/28 05:21:59;;;;;;;28.23;17.37;;;-2.20;99.90;-3.70;94419.00;;;;6152082;23;20954;-69
2020/12/28 05:24:27;;;;;;;23.57;16.40;;;-2.30;99.90;-3.60;94422.00;;;;6152410;23;20416;-69
2020/12/28 05:26:56;;;;;;;26.07;16.43;;;-2.20;99.90;-3.70;94415.00;;;;6152077;23;20409;-69
2020/12/28 05:29:27;;;;;;;25.43;17.80;;;-2.20;99.90;-3.70;94411.00;;;;6152009;23;20751;-68
2020/12/28 05:31:56;;;;;;;25.00;16.23;;;-2.20;99.90;-3.70;94407.00;;;;6151897;23;20763;-69
2020/12/28 05:34:26;;;;;;;28.10;18.07;;;-2.20;99.90;-3.60;94422.00;;;;6151857;23;20449;-69
2020/12/28 05:36:56;;;;;;;27.13;17.93;;;-2.30;99.90;-3.70;94418.00;;;;6151845;23;20480;-69
2020/12/28 05:39:27;;;;;;;27.90;17.53;;;-2.30;99.90;-3.60;94416.00;;;;6152710;23;20645;-68
2020/12/28 05:41:57;;;;;;;32.53;20.00;;;-2.20;99.90;-3.60;94415.00;;;;6151949;23;20923;-69
2020/12/28 05:44:25;;;;;;;29.30;17.10;;;-2.20;99.90;-3.60;94422.00;;;;6152149;23;20864;-68
2020/12/28 05:47:06;;;;;;;26.90;16.37;;;-2.20;99.90;-3.60;94423.00;;;;6151092;23;20397;-69
2020/12/28 05:49:38;;;;;;;26.37;17.03;;;-2.20;99.90;-3.60;94434.00;;;;6152605;23;20390;-68
2020/12/28 05:52:07;;;;;;;27.20;16.57;;;-2.00;99.90;-3.50;94436.00;;;;6151720;23;20441;-69
2020/12/28 05:54:36;;;;;;;26.33;16.63;;;-2.10;99.90;-3.50;94441.00;;;;6152379;23;20440;-69
2020/12/28 05:57:04;;;;;;;22.80;16.13;;;-2.10;99.90;-3.50;94440.00;;;;6151681;23;20416;-67
2020/12/28 05:59:33;;;;;;;25.10;17.07;;;-2.10;99.90;-3.50;94448.00;;;;6151719;23;20729;-70
2020/12/28 06:02:03;;;;;;;25.40;17.70;;;-2.10;99.90;-3.50;94449.00;;;;6151468;23;20950;-68
2020/12/28 06:04:31;;;;;;;29.47;17.67;;;-2.10;99.90;-3.50;94432.00;;;;6151870;23;20397;-68
2020/12/28 06:07:04;;;;;;;24.90;15.47;;;-2.10;99.90;-3.50;94447.00;;;;6151511;23;20393;-67
2020/12/28 06:09:32;;;;;;;26.83;16.57;;;-2.10;99.90;-3.50;94439.00;;;;6151593;23;20428;-68
2020/12/28 06:12:03;;;;;;;22.23;15.67;;;-2.10;99.90;-3.50;94456.00;;;;6151389;23;20436;-67
2020/12/28 06:14:35;;;;;;;24.20;16.27;;;-2.10;99.90;-3.50;94458.00;;;;6151616;23;20741;-68
2020/12/28 06:17:07;;;;;;;24.77;16.23;;;-2.10;99.90;-3.50;94452.00;;;;6151290;23;20393;-68
2020/12/28 06:19:36;;;;;;;27.50;15.70;;;-2.10;99.90;-3.50;94453.00;;;;6151967;23;20398;-68
2020/12/28 06:22:16;;;;;;;27.83;15.90;;;-2.10;99.90;-3.60;94437.00;;;;6150969;23;20444;-68
2020/12/28 06:24:44;;;;;;;25.17;15.93;;;-2.10;99.90;-3.60;94450.00;;;;6151941;23;20397;-69
2020/12/28 06:27:11;;;;;;;27.43;17.17;;;-2.10;99.90;-3.60;94435.00;;;;6150724;23;20417;-70
2020/12/28 06:29:41;;;;;;;24.53;15.20;;;-2.10;99.90;-3.50;94422.00;;;;6151502;23;20497;-67
2020/12/28 06:32:15;;;;;;;24.47;15.20;;;-2.20;99.90;-3.50;94434.00;;;;6151339;23;20433;-68
2020/12/28 06:34:46;;;;;;;25.57;16.73;;;-2.20;99.90;-3.50;94423.00;;;;6151620;23;20430;-68
2020/12/28 06:37:14;;;;;;;26.27;16.60;;;-2.10;99.90;-3.50;94441.00;;;;6151045;23;20844;-68
2020/12/28 06:39:42;;;;;;;24.07;15.73;;;-2.10;99.90;-3.60;94437.00;;;;6151136;23;20439;-67
2020/12/28 06:42:12;;;;;;;26.43;17.20;;;-2.10;99.90;-3.50;94436.00;;;;6151571;23;20451;-68
2020/12/28 06:44:40;;;;;;;25.07;16.40;;;-2.10;99.90;-3.50;94421.00;;;;6151116;23;20413;-68
2020/12/28 06:47:20;;;;;;;23.33;16.10;;;-2.10;99.90;-3.50;94416.00;;;;6150327;23;21129;-68
2020/12/28 06:49:48;;;;;;;30.53;16.97;;;-2.10;99.90;-3.50;94408.00;;;;6150903;23;20405;-68
2020/12/28 06:52:16;;;;;;;23.73;15.53;;;-2.10;99.90;-3.50;94404.00;;;;6151340;23;20457;-68
2020/12/28 06:54:44;;;;;;;23.50;16.77;;;-2.10;99.90;-3.50;94414.00;;;;6150902;23;20449;-68
2020/12/28 06:57:12;;;;;;;26.37;17.50;;;-2.10;99.90;-3.60;94403.00;;;;6151699;23;20394;-68
2020/12/28 06:59:40;;;;;;;22.20;15.53;;;-2.10;99.90;-3.60;94402.00;;;;6151211;23;20522;-68
2020/12/28 07:02:08;;;;;;;25.67;15.97;;;-2.00;99.90;-3.60;94388.00;;;;6151620;23;20433;-69
2020/12/28 07:04:38;;;;;;;29.07;17.33;;;-2.10;99.90;-3.60;94399.00;;;;6151426;23;20402;-68
2020/12/28 07:07:07;;;;;;;27.43;16.63;;;-2.00;99.90;-3.60;94392.00;;;;6151098;23;20453;-69
2020/12/28 07:09:35;;;;;;;27.13;17.47;;;-2.10;99.90;-3.60;94396.00;;;;6151965;23;20421;-68
2020/12/28 07:12:07;;;;;;;27.90;18.17;;;-2.10;99.90;-3.60;94390.00;;;;6151560;23;20425;-68
2020/12/28 07:14:35;;;;;;;24.80;17.77;;;-2.20;99.90;-3.60;94382.00;;;;6151529;23;20437;-67
2020/12/28 07:17:02;;;;;;;27.27;16.93;;;-2.20;99.90;-3.60;94378.00;;;;6150598;23;20431;-68
2020/12/28 07:19:31;;;;;;;29.83;19.67;;;-2.10;99.90;-3.70;94374.00;;;;6151953;23;20402;-68
2020/12/28 07:21:59;;;;;;;31.17;19.03;;;-2.20;99.90;-3.70;94380.00;;;;6151680;23;20425;-69
2020/12/28 07:24:27;;;;;;;28.47;17.60;;;-2.20;99.90;-3.70;94374.00;;;;6151641;23;20763;-69
2020/12/28 07:26:56;;;;;;;25.40;17.17;;;-2.20;99.90;-3.70;94373.00;;;;6151599;23;20425;-70
2020/12/28 07:29:23;;;;;;;25.37;17.47;;;-2.10;99.90;-3.60;94377.00;;;;6152270;23;20397;-68
2020/12/28 07:31:51;;;;;;;25.70;17.27;;;-2.20;99.90;-3.60;94378.00;;;;6151723;23;20760;-68
2020/12/28 07:34:20;;;;;;;23.50;15.83;;;-2.20;99.90;-3.60;94367.00;;;;6151534;23;20457;-68
2020/12/28 07:36:51;;;;;;;37.20;18.17;;;-2.20;99.90;-3.60;94372.00;;;;6151703;23;20393;-68
2020/12/28 07:39:20;;;;;;;23.93;15.87;;;-2.20;99.90;-3.60;94372.00;;;;6152001;23;20402;-68
2020/12/28 07:41:47;;;;;;;24.87;16.80;;;-2.20;99.90;-3.60;94372.00;;;;6151775;23;20429;-68
2020/12/28 07:44:16;;;;;;;25.77;17.73;;;-2.20;99.90;-3.60;94363.00;;;;6151342;23;20922;-68
2020/12/28 07:46:55;;;;;;;31.60;17.20;;;-2.20;99.90;-3.60;94359.00;;;;6149992;23;20405;-70
2020/12/28 07:49:25;;;;;;;32.80;18.03;;;-2.20;99.90;-3.70;94348.00;;;;6150763;23;20397;-67
2020/12/28 07:52:05;;;;;;;28.70;17.67;;;-2.20;99.90;-3.80;94363.00;;;;6151060;23;20437;-69
2020/12/28 07:54:45;;;;;;;36.50;25.50;;;-2.20;99.90;-3.80;94370.00;;;;6150381;23;20484;-67
2020/12/28 07:57:21;;;;;;;32.30;18.13;;;-2.20;99.90;-3.70;94363.00;;;;6149923;23;20409;-68
2020/12/28 08:00:05;;;;;;;30.97;18.23;;;-2.20;99.90;-3.70;94367.00;;;;6151069;23;20405;-68
2020/12/28 08:02:46;;;;;;;77.30;46.40;;;-2.30;99.90;-3.80;94363.00;;;;6150679;23;20425;-68
2020/12/28 08:05:14;;;;;;;39.20;26.90;;;-2.30;99.90;-3.80;94365.00;;;;6150798;23;20412;-69
2020/12/28 08:07:42;;;;;;;62.63;39.60;;;-2.20;99.90;-3.80;94381.00;;;;6151041;23;20410;-68
2020/12/28 08:10:11;;;;;;;35.83;24.37;;;-2.30;99.90;-3.70;94383.00;;;;6151157;23;20428;-68
2020/12/28 08:12:41;;;;;;;42.00;26.30;;;-2.30;99.90;-3.70;94385.00;;;;6150706;23;20429;-68
2020/12/28 08:15:09;;;;;;;41.70;26.60;;;-2.30;99.90;-3.60;94389.00;;;;6151297;23;20547;-68
2020/12/28 08:17:36;;;;;;;45.30;27.30;;;-2.30;99.90;-3.60;94377.00;;;;6149841;23;20397;-68
2020/12/28 08:20:08;;;;;;;33.60;19.60;;;-2.20;99.90;-3.70;94383.00;;;;6150952;23;20429;-68
2020/12/28 08:22:36;;;;;;;41.90;24.13;;;-2.20;99.90;-3.80;94393.00;;;;6150916;23;20950;-69
2020/12/28 08:25:06;;;;;;;35.87;21.97;;;-2.30;99.90;-3.80;94382.00;;;;6151591;23;20405;-68
2020/12/28 08:27:35;;;;;;;26.03;20.17;;;-2.30;99.90;-3.80;94383.00;;;;6149806;23;20860;-68
2020/12/28 08:30:07;;;;;;;35.60;20.50;;;-2.30;99.90;-3.80;94376.00;;;;6151843;23;20409;-68
2020/12/28 08:32:38;;;;;;;25.33;18.67;;;-2.30;99.90;-3.70;94368.00;;;;6151208;23;20784;-68
2020/12/28 08:35:06;;;;;;;26.17;17.17;;;-2.30;99.90;-3.50;94387.00;;;;6151832;23;20434;-68
2020/12/28 08:37:36;;;;;;;31.17;20.07;;;-2.30;99.90;-3.60;94392.00;;;;6151234;23;20397;-68
2020/12/28 08:40:14;;;;;;;27.23;17.57;;;-2.20;99.90;-3.50;94405.00;;;;6151104;23;20429;-68
2020/12/28 08:42:43;;;;;;;29.53;20.43;;;-2.10;99.90;-3.40;94403.00;;;;6151468;23;20425;-68
2020/12/28 08:45:20;;;;;;;29.40;18.13;;;-2.10;99.90;-3.30;94396.00;;;;6151274;23;20416;-67
2020/12/28 08:47:53;;;;;;;24.50;16.23;;;-2.10;99.90;-3.20;94400.00;;;;6150779;23;20413;-68
2020/12/28 08:50:21;;;;;;;27.80;16.17;;;-2.00;99.90;-3.10;94411.00;;;;6150703;23;20728;-68
2020/12/28 08:52:51;;;;;;;25.27;17.23;;;-1.90;99.90;-3.00;94412.00;;;;6151524;23;20429;-68
2020/12/28 08:55:19;;;;;;;24.03;17.20;;;-1.80;99.90;-3.00;94413.00;;;;6150909;23;20669;-68
2020/12/28 08:57:53;;;;;;;25.10;18.30;;;-1.70;99.90;-2.90;94410.00;;;;6150596;23;20926;-68
2020/12/28 09:00:22;;;;;;;23.37;16.53;;;-1.70;99.90;-2.90;94411.00;;;;6150580;23;20879;-69
2020/12/28 09:02:55;;;;;;;47.17;26.43;;;-1.60;99.90;-3.20;94414.00;;;;6150374;23;20737;-68
2020/12/28 09:05:23;;;;;;;58.93;31.13;;;-1.60;99.90;-3.30;94407.00;;;;6150437;23;20428;-68
2020/12/28 09:07:51;;;;;;;66.83;39.50;;;-1.70;99.90;-3.30;94414.00;;;;6149278;23;20425;-68
2020/12/28 09:10:19;;;;;;;25.70;16.80;;;-1.70;99.90;-3.30;94414.00;;;;6150705;23;20421;-68
2020/12/28 09:12:46;;;;;;;27.93;19.27;;;-1.80;99.90;-3.30;94412.00;;;;6149317;23;20512;-68
2020/12/28 09:15:15;;;;;;;30.87;17.60;;;-1.80;99.90;-3.20;94429.00;;;;6150869;23;20429;-68
2020/12/28 09:17:45;;;;;;;61.93;34.37;;;-1.70;99.90;-3.10;94435.00;;;;6149559;23;20402;-68
2020/12/28 09:20:14;;;;;;;62.70;36.20;;;-1.70;99.90;-3.10;94427.00;;;;6149589;23;20949;-68
2020/12/28 09:22:42;;;;;;;37.77;22.93;;;-1.60;99.90;-3.00;94442.00;;;;6149838;23;20508;-68
2020/12/28 09:25:09;;;;;;;29.77;17.33;;;-0.50;99.90;-3.20;94429.00;;;;6148839;23;20410;-69
2020/12/28 09:27:37;;;;;;;30.43;19.53;;;-1.70;99.90;-3.20;94413.00;;;;6149126;23;20724;-68
2020/12/28 09:30:07;;;;;;;32.73;19.90;;;-1.70;99.90;-3.10;94433.00;;;;6149169;23;20499;-68
2020/12/28 09:32:38;;;;;;;32.30;19.10;;;-1.70;99.90;-2.90;94425.00;;;;6150252;23;20954;-68
2020/12/28 09:35:06;;;;;;;28.37;17.30;;;-0.90;99.90;-2.90;94413.00;;;;6150566;23;20445;-67
2020/12/28 09:37:34;;;;;;;22.40;15.97;;;-1.60;99.90;-2.90;94422.00;;;;6149876;23;20409;-68
2020/12/28 09:40:02;;;;;;;24.17;15.83;;;-1.60;99.90;-2.90;94414.00;;;;6150339;23;20408;-67
2020/12/28 09:42:30;;;;;;;24.33;16.93;;;-1.50;99.90;-2.90;94408.00;;;;6149896;23;20824;-68
2020/12/28 09:44:57;;;;;;;21.97;14.33;;;-1.50;99.90;-2.50;94419.00;;;;6149709;23;20409;-68
2020/12/28 09:47:25;;;;;;;20.87;15.90;;;-1.40;99.90;-2.20;94422.00;;;;6149723;23;20390;-67
2020/12/28 09:49:53;;;;;;;22.90;15.87;;;-1.20;99.90;-1.80;94440.00;;;;6149654;23;20469;-68
2020/12/28 09:52:21;;;;;;;26.20;15.47;;;-1.50;99.90;-1.90;94433.00;;;;6150129;23;20455;-67
2020/12/28 09:54:48;;;;;;;25.37;17.07;;;-0.90;99.90;-1.80;94433.00;;;;6149535;23;20434;-68
2020/12/28 09:57:16;;;;;;;24.20;17.80;;;-0.70;99.90;-1.60;94409.00;;;;6149257;23;20918;-68
2020/12/28 09:59:43;;;;;;;25.60;16.37;;;-0.60;99.90;-1.60;94410.00;;;;6150137;23;20410;-68
2020/12/28 10:02:11;;;;;;;29.10;16.37;;;-0.50;99.90;-1.10;94401.00;;;;6149634;23;20455;-69
2020/12/28 10:04:38;;;;;;;27.87;18.23;;;-0.30;99.90;-1.00;94397.00;;;;6152988;23;20409;-69
2020/12/28 10:07:07;;;;;;;33.33;20.23;;;-0.20;99.90;-1.00;94396.00;;;;6151846;23;20965;-69
2020/12/28 10:09:34;;;;;;;26.27;17.67;;;0.00;99.90;-0.90;94384.00;;;;6152665;23;20428;-68
2020/12/28 10:12:01;;;;;;;21.73;14.17;;;0.20;99.90;-0.90;94385.00;;;;6151616;23;20969;-68
2020/12/28 10:14:30;;;;;;;17.63;12.07;;;0.20;99.90;-0.90;94379.00;;;;6152453;23;20385;-68
2020/12/28 10:16:57;;;;;;;22.27;14.83;;;0.30;99.90;-0.80;94379.00;;;;6151700;23;20409;-68
2020/12/28 10:19:25;;;;;;;22.60;15.03;;;0.40;99.90;-0.80;94369.00;;;;6152669;23;20389;-67
2020/12/28 10:21:52;;;;;;;20.47;14.40;;;0.30;99.90;-0.80;94375.00;;;;6152129;23;20425;-68
2020/12/28 10:24:21;;;;;;;19.90;14.90;;;0.40;99.90;-0.70;94385.00;;;;6151568;23;20406;-67
2020/12/28 10:26:52;;;;;;;24.40;16.27;;;0.40;99.90;-0.70;94389.00;;;;6150027;23;20456;-68
2020/12/28 10:29:43;;;;;;;26.03;17.13;;;0.40;99.90;-0.70;94369.00;;;;6152118;23;21102;-68
2020/12/28 10:32:14;;;;;;;21.07;15.23;;;0.50;99.90;-0.70;94361.00;;;;6092456;23;20437;-68
2020/12/28 10:34:42;;;;;;;24.93;17.03;;;0.50;99.90;-0.70;94355.00;;;;6152245;23;20453;-68
2020/12/28 10:37:09;;;;;;;24.23;16.17;;;0.50;99.90;-0.90;94349.00;;;;6151676;23;20977;-67
2020/12/28 10:39:37;;;;;;;24.63;16.37;;;0.50;99.90;-0.90;94339.00;;;;6152750;23;20414;-67
2020/12/28 10:42:05;;;;;;;21.90;15.03;;;0.40;99.90;-0.80;94340.00;;;;6151988;23;20426;-68
2020/12/28 10:44:33;;;;;;;24.97;16.60;;;0.40;99.90;-0.70;94319.00;;;;6152215;23;20406;-67
2020/12/28 10:47:00;;;;;;;25.47;16.50;;;0.40;99.90;-0.80;94325.00;;;;6151519;23;20414;-67
2020/12/28 10:49:28;;;;;;;29.03;19.30;;;0.50;99.90;-1.10;94311.00;;;;6149817;23;20418;-69